Time;durP1;ratioP1;P1;durP2;ratioP2;P2;SDS_P1;SDS_P2;PMS_P1;PMS_P2;Temp;Humidity;BMP_temperature;BMP_pressure;BME280_temperature;BME280_humidity;BME280_pressure;Samples;Min_cycle;Max_cycle;Signal;HPM_P1;HPM_P2
2022/12/04 00:02:11;;;;;;;52.70;19.43;;;;;;;-0.25;100.00;147381.72;5031641;28;20056;-61
2022/12/04 00:04:36;;;;;;;36.33;15.17;;;;;;;-0.21;100.00;147392.00;5031566;28;20033;-61
2022/12/04 00:07:01;;;;;;;49.60;18.90;;;;;;;-0.25;100.00;147383.00;5030554;28;20025;-61
2022/12/04 00:09:27;;;;;;;48.87;18.37;;;;;;;-0.21;100.00;147392.00;5031529;28;20025;-61
2022/12/04 00:11:52;;;;;;;63.43;24.03;;;;;;;-0.21;100.00;147393.28;5031517;28;20432;-62
2022/12/04 00:14:18;;;;;;;44.93;16.87;;;;;;;-0.20;100.00;147394.56;5031576;28;20029;-61
2022/12/04 00:16:43;;;;;;;55.00;19.80;;;;;;;-0.21;100.00;147393.28;5029060;28;20485;-62
2022/12/04 00:19:09;;;;;;;42.23;14.33;;;;;;;-0.22;100.00;147390.72;5031218;28;20036;-62
2022/12/04 00:21:34;;;;;;;60.70;22.57;;;;;;;-0.18;100.00;147400.97;5031389;28;20075;-61
2022/12/04 00:24:00;;;;;;;68.30;25.97;;;;;;;-0.15;100.00;147408.66;5031539;28;20040;-61
2022/12/04 00:26:27;;;;;;;44.77;17.33;;;;;;;-0.16;100.00;147406.09;5033558;28;20076;-61
2022/12/04 00:28:53;;;;;;;40.60;15.37;;;;;;;-0.13;100.00;147412.50;5035652;28;20462;-61
2022/12/04 00:31:21;;;;;;;49.97;20.73;;;;;;;-0.19;100.00;147398.41;5032505;28;20040;-61
2022/12/04 00:33:46;;;;;;;55.27;19.97;;;;;;;-0.15;100.00;147408.66;5034687;28;20033;-61
2022/12/04 00:36:14;;;;;;;55.17;21.70;;;;;;;-0.15;100.00;147408.66;5035026;28;20429;-61
2022/12/04 00:38:41;;;;;;;57.27;21.43;;;;;;;-0.19;100.00;147398.41;5033166;28;20029;-62
2022/12/04 00:41:16;;;;;;;53.40;19.67;;;;;;;-0.18;100.00;147399.69;5034650;28;20033;-61
2022/12/04 00:43:42;;;;;;;58.70;19.53;;;;;;;-0.14;100.00;147409.94;5034667;28;20033;-61
2022/12/04 00:46:08;;;;;;;42.53;15.27;;;;;;;-0.14;100.00;147411.22;5032444;28;20025;-61
2022/12/04 00:48:33;;;;;;;37.43;16.67;;;;;;;-0.13;100.00;147413.78;5034149;28;20025;-61
2022/12/04 00:51:08;;;;;;;57.97;21.00;;;;;;;-0.18;100.00;147400.97;5034546;28;20025;-61
2022/12/04 00:53:34;;;;;;;62.27;21.37;;;;;;;-0.18;100.00;147400.97;5034846;28;20060;-61
2022/12/04 00:56:03;;;;;;;47.27;17.23;;;;;;;-0.16;100.00;147406.09;5032166;28;20080;-61
2022/12/04 00:58:28;;;;;;;62.07;21.43;;;;;;;-0.13;100.00;147412.50;5034622;28;20140;-61
2022/12/04 01:01:04;;;;;;;52.93;20.20;;;;;;;-0.14;100.00;147409.94;5031926;28;20052;-62
2022/12/04 01:03:30;;;;;;;40.77;17.73;;;;;;;-0.15;100.00;147408.66;5034489;28;20033;-61
2022/12/04 01:05:55;;;;;;;50.63;19.93;;;;;;;-0.16;100.00;147406.09;5034196;28;20362;-61
2022/12/04 01:08:21;;;;;;;59.93;20.30;;;;;;;-0.13;100.00;147413.78;5033355;28;20033;-61
2022/12/04 01:10:46;;;;;;;41.53;16.07;;;;;;;-0.16;100.00;147406.09;5034199;28;20081;-61
2022/12/04 01:13:12;;;;;;;45.50;17.57;;;;;;;-0.14;100.00;147411.22;5034074;28;20075;-61
2022/12/04 01:15:40;;;;;;;61.43;22.00;;;;;;;-0.16;100.00;147406.09;5033249;28;20116;-62
2022/12/04 01:18:06;;;;;;;39.80;14.33;;;;;;;-0.15;100.00;147408.66;5031802;28;20029;-61
2022/12/04 01:20:31;;;;;;;49.83;17.03;;;;;;;-0.14;100.00;147411.22;5034253;28;20493;-61
2022/12/04 01:22:56;;;;;;;55.93;19.57;;;;;;;-0.13;100.00;147413.78;5033858;28;20034;-62
2022/12/04 01:25:22;;;;;;;45.87;15.73;;;;;;;-0.14;100.00;147411.22;5034107;28;20052;-61
2022/12/04 01:27:47;;;;;;;55.37;19.67;;;;;;;-0.15;100.00;147408.66;5032300;28;20029;-61
2022/12/04 01:30:13;;;;;;;53.90;16.33;;;;;;;-0.09;100.00;147424.09;5033659;28;20030;-61
2022/12/04 01:32:38;;;;;;;50.30;17.43;;;;;;;-0.10;100.00;147421.53;5031426;28;20501;-62
2022/12/04 01:35:05;;;;;;;35.27;13.53;;;;;;;-0.10;100.00;147421.53;5033280;28;20064;-61
2022/12/04 01:37:31;;;;;;;58.33;21.83;;;;;;;-0.12;100.00;147416.41;5033802;28;20025;-61
2022/12/04 01:39:59;;;;;;;38.23;13.97;;;;;;;-0.13;100.00;147413.78;5032602;28;20040;-61
2022/12/04 01:42:25;;;;;;;63.50;22.57;;;;;;;-0.10;100.00;147421.53;5033534;28;20104;-61
2022/12/04 01:45:33;;;;;;;46.33;16.00;;;;;;;-0.11;100.00;147418.97;5032846;28;20489;-61
2022/12/04 01:48:10;;;;;;;41.40;14.27;;;;;;;-0.12;100.00;147415.06;5031878;28;20037;-61
2022/12/04 01:50:36;;;;;;;44.80;17.60;;;;;;;-0.13;100.00;147413.78;5033314;28;20030;-61
2022/12/04 01:53:01;;;;;;;62.17;21.60;;;;;;;-0.14;100.00;147409.94;5033291;28;20540;-61
2022/12/04 01:55:28;;;;;;;62.80;20.83;;;;;;;-0.15;100.00;147408.66;5033426;28;20029;-61
2022/12/04 01:57:53;;;;;;;60.10;21.13;;;;;;;-0.15;100.00;147408.66;5029039;28;20240;-62
2022/12/04 02:00:19;;;;;;;59.97;22.47;;;;;;;-0.14;100.00;147409.94;5033512;28;20134;-61
2022/12/04 02:02:46;;;;;;;57.87;20.73;;;;;;;-0.15;100.00;147408.66;5030626;28;20029;-61
2022/12/04 02:05:15;;;;;;;56.53;20.73;;;;;;;-0.12;100.00;147416.41;5033175;28;20387;-61
2022/12/04 02:07:43;;;;;;;34.70;13.00;;;;;;;-0.11;100.00;147418.97;5022057;28;20391;-62
2022/12/04 02:10:10;;;;;;;70.70;26.50;;;;;;;-0.13;100.00;147413.78;5241391;22;20016;-62
2022/12/04 02:12:54;;;;;;;59.83;22.70;;;;;;;-0.16;100.00;147404.81;5026860;28;20072;-61
2022/12/04 02:16:01;;;;;;;36.97;13.53;;;;;;;-0.13;100.00;147412.50;5029932;28;20033;-64
2022/12/04 02:18:37;;;;;;;47.93;16.20;;;;;;;-0.10;100.00;147421.53;5012484;28;20037;-64
2022/12/04 02:21:30;;;;;;;51.07;17.27;;;;;;;-0.12;100.00;147415.06;5032415;28;20355;-65
2022/12/04 02:23:58;;;;;;;34.47;14.67;;;;;;;-0.09;100.00;147424.09;5032497;28;20124;-64
2022/12/04 02:26:29;;;;;;;30.83;12.50;;;;;;;-0.11;100.00;147417.69;5031721;28;20029;-64
2022/12/04 02:29:07;;;;;;;47.60;16.65;;;;;;;-0.12;100.00;147416.41;5033008;28;20083;-64
2022/12/04 02:31:43;;;;;;;32.33;12.30;;;;;;;-0.14;100.00;147409.94;5032548;28;20034;-64
2022/12/04 02:34:36;;;;;;;63.10;23.50;;;;;;;-0.15;100.00;147408.66;5032749;28;20516;-64
2022/12/04 02:37:11;;;;;;;43.00;16.43;;;;;;;-0.14;100.00;147411.22;5032834;28;20358;-64
2022/12/04 02:39:40;;;;;;;49.13;16.33;;;;;;;-0.11;100.00;147417.69;5032273;28;20125;-64
2022/12/04 02:42:19;;;;;;;50.63;17.67;;;;;;;-0.14;100.00;147411.22;5032339;28;20061;-64
2022/12/04 02:45:04;;;;;;;59.13;22.73;;;;;;;-0.14;100.00;147409.94;5032695;28;20025;-64
2022/12/04 02:47:32;;;;;;;47.27;17.03;;;;;;;-0.19;100.00;147398.41;5031882;28;20025;-64
2022/12/04 02:50:00;;;;;;;41.20;15.00;;;;;;;-0.15;100.00;147408.66;5032456;28;20032;-64
2022/12/04 02:52:41;;;;;;;66.30;21.97;;;;;;;-0.16;100.00;147404.81;5032145;28;20025;-65
2022/12/04 02:55:15;;;;;;;50.83;17.70;;;;;;;-0.15;100.00;147408.66;5032543;28;20491;-64
2022/12/04 02:57:46;;;;;;;55.93;19.33;;;;;;;-0.12;100.00;147415.06;5032348;28;20423;-64
2022/12/04 03:00:12;;;;;;;58.67;19.02;;;;;;;-0.09;100.00;147424.09;5032061;28;20037;-64
2022/12/04 03:03:01;;;;;;;61.13;20.73;;;;;;;-0.11;100.00;147417.69;5032105;28;20474;-64
2022/12/04 03:05:42;;;;;;;39.67;14.97;;;;;;;-0.08;100.00;147426.66;5032030;28;20025;-64
2022/12/04 03:08:12;;;;;;;43.10;14.13;;;;;;;-0.13;100.00;147413.78;5031955;28;20029;-65
2022/12/04 03:10:50;;;;;;;45.92;17.88;;;;;;;-0.11;100.00;147418.97;5031878;28;20454;-64
2022/12/04 03:13:47;;;;;;;61.67;21.60;;;;;;;-0.15;100.00;147408.66;5032058;28;20034;-64
2022/12/04 03:16:21;;;;;;;65.60;24.60;;;;;;;-0.12;100.00;147415.06;5031124;28;20083;-64
2022/12/04 03:18:52;;;;;;;50.07;16.93;;;;;;;-0.12;100.00;147416.41;5031843;28;20032;-64
2022/12/04 03:21:21;;;;;;;64.00;21.57;;;;;;;-0.12;100.00;147416.41;5031658;28;20045;-64
2022/12/04 03:24:12;;;;;;;68.97;24.53;;;;;;;-0.11;100.00;147418.97;5031945;28;20264;-64
2022/12/04 03:26:46;;;;;;;49.13;17.55;;;;;;;-0.11;100.00;147418.97;5027686;28;20037;-64
2022/12/04 03:29:18;;;;;;;47.37;16.87;;;;;;;-0.11;100.00;147418.97;5031567;28;20029;-65
2022/12/04 03:31:49;;;;;;;37.57;13.20;;;;;;;-0.12;100.00;147416.41;5031863;28;20112;-65
2022/12/04 03:34:24;;;;;;;55.90;20.43;;;;;;;-0.08;100.00;147426.66;5032004;28;20438;-62
2022/12/04 03:36:56;;;;;;;56.80;19.00;;;;;;;-0.11;100.00;147418.97;5031590;28;20531;-61
2022/12/04 03:39:58;;;;;;;70.95;22.98;;;;;;;-0.11;100.00;147417.69;5031103;28;20039;-61
2022/12/04 03:42:45;;;;;;;42.80;14.87;;;;;;;-0.13;100.00;147413.78;5032061;28;20039;-61
2022/12/04 03:45:19;;;;;;;35.57;12.20;;;;;;;-0.15;100.00;147408.66;5031833;28;20029;-61
2022/12/04 03:47:57;;;;;;;71.40;24.10;;;;;;;-0.16;100.00;147406.09;5030602;28;20026;-61
2022/12/04 03:50:29;;;;;;;60.77;21.97;;;;;;;-0.16;100.00;147406.09;5029475;28;20018;-61
2022/12/04 03:53:04;;;;;;;45.30;16.50;;;;;;;-0.12;100.00;147415.06;5031732;28;20384;-61
2022/12/04 03:55:33;;;;;;;74.17;25.17;;;;;;;-0.12;100.00;147415.06;5031452;28;20090;-61
2022/12/04 03:58:06;;;;;;;67.33;20.40;;;;;;;-0.14;100.00;147411.22;5031636;28;20040;-61
2022/12/04 04:00:33;;;;;;;52.07;17.60;;;;;;;-0.18;100.00;147400.97;5035586;28;20496;-61
2022/12/04 04:03:06;;;;;;;47.27;16.30;;;;;;;-0.21;100.00;147393.28;5035534;28;20464;-61
2022/12/04 04:05:35;;;;;;;49.87;17.00;;;;;;;-0.19;100.00;147398.41;5035513;28;20025;-61
2022/12/04 04:10:51;;;;;;;55.23;17.00;;;;;;;-0.24;100.00;147385.59;5035582;28;20134;-61
2022/12/04 04:24:33;;;;;;;53.60;19.70;;;;;;;-0.18;100.00;147400.97;5035077;28;20095;-61
2022/12/04 04:26:59;;;;;;;56.03;18.50;;;;;;;-0.21;100.00;147393.28;5035308;28;20467;-61
2022/12/04 04:29:25;;;;;;;72.17;21.83;;;;;;;-0.15;100.00;147408.66;5035298;28;20029;-61
2022/12/04 04:31:59;;;;;;;37.83;13.40;;;;;;;-0.14;100.00;147411.22;5035102;28;20117;-61
2022/12/04 04:34:38;;;;;;;78.47;25.90;;;;;;;-0.16;100.00;147406.09;5035124;28;20037;-61
2022/12/04 04:37:13;;;;;;;68.27;23.53;;;;;;;-0.17;100.00;147403.53;5034704;28;20113;-61
2022/12/04 04:40:01;;;;;;;84.03;27.73;;;;;;;-0.18;100.00;147400.97;5034987;28;20397;-61
2022/12/04 04:42:38;;;;;;;69.63;22.00;;;;;;;-0.14;100.00;147411.22;5034602;28;20030;-61
2022/12/04 04:45:14;;;;;;;49.27;18.03;;;;;;;-0.11;100.00;147417.69;5034522;28;20060;-61
2022/12/04 04:47:49;;;;;;;63.63;18.67;;;;;;;-0.12;100.00;147416.41;5034230;28;20056;-61
2022/12/04 04:50:16;;;;;;;61.73;22.03;;;;;;;-0.13;100.00;147413.78;5034739;28;20061;-61
2022/12/04 04:52:47;;;;;;;57.27;19.07;;;;;;;-0.16;100.00;147406.09;5034619;28;20048;-61
2022/12/04 04:55:15;;;;;;;58.63;19.43;;;;;;;-0.10;100.00;147421.53;5034691;28;20029;-61
2022/12/04 04:57:40;;;;;;;66.70;19.03;;;;;;;-0.10;100.00;147421.53;5034229;28;20017;-61
2022/12/04 05:00:16;;;;;;;76.47;21.97;;;;;;;-0.07;100.00;147429.19;5034640;28;20037;-62
2022/12/04 05:02:42;;;;;;;62.97;21.37;;;;;;;-0.11;100.00;147418.97;5034251;28;20032;-62
2022/12/04 05:05:08;;;;;;;62.10;20.10;;;;;;;-0.10;100.00;147421.53;5034114;28;20037;-61
2022/12/04 05:07:34;;;;;;;78.17;26.37;;;;;;;-0.12;100.00;147416.41;5034541;28;20022;-63
2022/12/04 05:09:59;;;;;;;53.30;20.43;;;;;;;-0.11;100.00;147417.69;5033497;28;20443;-62
2022/12/04 05:12:24;;;;;;;61.80;20.60;;;;;;;-0.10;100.00;147420.25;5033825;28;20029;-61
2022/12/04 05:14:50;;;;;;;76.63;24.57;;;;;;;-0.11;100.00;147418.97;5034317;28;20033;-61
2022/12/04 05:17:16;;;;;;;50.23;17.70;;;;;;;-0.10;100.00;147421.53;5034258;28;20499;-61
2022/12/04 05:19:53;;;;;;;68.57;22.07;;;;;;;-0.12;100.00;147416.41;5034165;28;20033;-61
2022/12/04 05:22:23;;;;;;;65.53;21.80;;;;;;;-0.09;100.00;147424.09;5031985;28;20413;-62
2022/12/04 05:24:48;;;;;;;65.73;21.77;;;;;;;-0.08;100.00;147426.66;5034187;28;20044;-62
2022/12/04 05:27:14;;;;;;;55.73;18.73;;;;;;;-0.06;100.00;147431.75;5032897;28;20029;-61
2022/12/04 05:29:39;;;;;;;54.50;18.00;;;;;;;-0.04;100.00;147436.91;5033787;28;20052;-61
2022/12/04 05:32:04;;;;;;;60.30;19.07;;;;;;;-0.04;100.00;147435.59;5034042;28;20029;-61
2022/12/04 05:34:30;;;;;;;79.07;25.77;;;;;;;-0.07;100.00;147427.94;5033971;28;20104;-61
2022/12/04 05:36:55;;;;;;;48.67;15.83;;;;;;;-0.05;100.00;147434.31;5031846;28;20057;-61
2022/12/04 05:39:21;;;;;;;51.10;17.80;;;;;;;-0.05;100.00;147434.31;5033586;28;20041;-61
2022/12/04 05:41:46;;;;;;;60.00;20.33;;;;;;;-0.03;100.00;147439.44;5033877;28;20026;-61
2022/12/04 05:44:12;;;;;;;79.97;26.40;;;;;;;-0.02;100.00;147442.00;5033759;28;20025;-61
2022/12/04 05:46:37;;;;;;;60.67;20.07;;;;;;;-0.04;100.00;147436.91;5022425;28;20064;-61
2022/12/04 05:49:03;;;;;;;67.03;21.13;;;;;;;-0.03;100.00;147438.19;5017349;28;20493;-61
2022/12/04 05:51:28;;;;;;;44.73;17.03;;;;;;;-0.02;100.00;147442.00;5026565;28;20065;-61
2022/12/04 05:53:53;;;;;;;53.40;17.40;;;;;;;-0.03;100.00;147439.44;5033617;28;20033;-61
2022/12/04 05:56:19;;;;;;;55.80;18.43;;;;;;;-0.03;100.00;147439.44;5032403;28;20026;-61
2022/12/04 05:58:44;;;;;;;47.83;15.83;;;;;;;-0.04;100.00;147436.91;5033251;28;20401;-62
2022/12/04 06:01:15;;;;;;;57.03;19.63;;;;;;;-0.05;100.00;147434.31;5031250;28;20021;-61
2022/12/04 06:03:40;;;;;;;43.50;16.00;;;;;;;-0.06;100.00;147431.75;5033056;28;20043;-61
2022/12/04 06:06:13;;;;;;;58.87;18.53;;;;;;;0.01;100.00;147447.19;5031474;28;20104;-62
2022/12/04 06:08:39;;;;;;;58.73;18.80;;;;;;;-0.01;100.00;147443.28;5032910;28;20033;-61
2022/12/04 06:11:15;;;;;;;62.33;21.10;;;;;;;0.02;100.00;147449.75;5032198;28;20560;-62
2022/12/04 06:13:43;;;;;;;48.30;18.13;;;;;;;0.04;100.00;147454.88;5032917;28;20061;-61
2022/12/04 06:16:17;;;;;;;67.57;20.43;;;;;;;0.05;100.00;147457.44;5032985;28;20041;-61
2022/12/04 06:18:43;;;;;;;61.40;19.40;;;;;;;0.05;100.00;147458.72;5033071;28;20047;-61
2022/12/04 06:21:09;;;;;;;58.17;20.30;;;;;;;0.02;100.00;147451.03;5032264;28;20481;-61
2022/12/04 06:23:35;;;;;;;75.70;24.13;;;;;;;0.05;100.00;147457.44;5031991;28;20079;-61
2022/12/04 06:26:04;;;;;;;54.00;19.63;;;;;;;0.01;100.00;147447.19;5032555;28;20057;-61
2022/12/04 06:28:30;;;;;;;75.07;23.13;;;;;;;0.05;100.00;147457.44;5032624;28;20037;-61
2022/12/04 06:31:00;;;;;;;63.13;20.27;;;;;;;0.07;100.00;147463.84;5031978;28;20095;-61
2022/12/04 06:33:25;;;;;;;59.40;18.13;;;;;;;0.06;100.00;147461.28;5032837;28;20105;-61
2022/12/04 06:36:01;;;;;;;77.13;25.17;;;;;;;0.08;100.00;147465.13;5031618;28;20116;-61
2022/12/04 06:38:27;;;;;;;90.53;26.20;;;;;;;0.05;100.00;147458.72;5032342;28;20036;-61
2022/12/04 06:40:52;;;;;;;77.70;24.93;;;;;;;0.09;100.00;147467.69;5031164;28;20058;-61
2022/12/04 06:43:18;;;;;;;56.23;17.97;;;;;;;0.09;100.00;147467.69;5032266;28;20022;-61
2022/12/04 06:45:43;;;;;;;70.43;22.40;;;;;;;0.11;100.00;147474.09;5032744;28;20025;-61
2022/12/04 06:48:09;;;;;;;70.60;21.47;;;;;;;0.13;100.00;147477.97;5032152;28;20032;-61
2022/12/04 06:50:34;;;;;;;35.63;13.67;;;;;;;0.13;100.00;147477.97;5031215;28;20037;-61
2022/12/04 06:53:00;;;;;;;63.27;21.43;;;;;;;0.14;100.00;147481.81;5031268;28;20029;-61
2022/12/04 06:55:25;;;;;;;52.30;18.43;;;;;;;0.14;100.00;147481.81;5032394;28;20033;-61
2022/12/04 06:57:50;;;;;;;55.67;17.50;;;;;;;0.16;100.00;147485.66;5032253;28;20535;-61
2022/12/04 07:00:16;;;;;;;73.23;24.37;;;;;;;0.16;100.00;147486.94;5032286;28;20029;-61
2022/12/04 07:02:41;;;;;;;63.53;21.13;;;;;;;0.17;100.00;147489.50;5030025;28;20018;-61
2022/12/04 07:05:07;;;;;;;66.13;21.53;;;;;;;0.16;100.00;147486.94;5032393;28;20485;-61
2022/12/04 07:07:32;;;;;;;84.83;28.10;;;;;;;0.18;100.00;147490.78;5030534;28;20044;-61
2022/12/04 07:09:57;;;;;;;53.30;17.47;;;;;;;0.18;100.00;147492.06;5032069;28;20061;-62
2022/12/04 07:12:23;;;;;;;51.70;17.47;;;;;;;0.19;100.00;147493.34;5031203;28;20065;-61
2022/12/04 07:14:48;;;;;;;59.67;18.80;;;;;;;0.22;100.00;147501.03;5031796;28;20048;-61
2022/12/04 07:17:13;;;;;;;46.17;15.70;;;;;;;0.20;100.00;147495.91;5031749;28;20460;-61
2022/12/04 07:19:39;;;;;;;65.53;22.37;;;;;;;0.22;100.00;147501.03;5031664;28;20068;-61
2022/12/04 07:22:05;;;;;;;59.00;19.97;;;;;;;0.19;100.00;147493.34;5031102;28;20075;-61
2022/12/04 07:24:30;;;;;;;53.53;19.67;;;;;;;0.20;100.00;147495.91;5032051;28;20033;-61
2022/12/04 07:26:55;;;;;;;73.67;27.17;;;;;;;0.25;100.00;147508.78;5032029;28;20025;-61
2022/12/04 07:29:21;;;;;;;65.87;21.57;;;;;;;0.28;100.00;147517.75;5031967;28;20384;-61
2022/12/04 07:31:46;;;;;;;33.47;12.03;;;;;;;0.27;100.00;147513.91;5030377;28;20021;-61
2022/12/04 07:34:12;;;;;;;59.77;20.50;;;;;;;0.29;100.00;147519.03;5031319;28;20025;-61
2022/12/04 07:36:39;;;;;;;43.50;14.60;;;;;;;0.33;100.00;147529.28;5027830;28;20030;-62
2022/12/04 07:39:04;;;;;;;45.43;16.07;;;;;;;0.29;100.00;147520.31;5012168;28;20100;-61
2022/12/04 07:41:29;;;;;;;70.13;25.43;;;;;;;0.35;100.00;147533.13;5015529;28;20033;-61
2022/12/04 07:43:55;;;;;;;74.83;24.20;;;;;;;0.38;100.00;147540.84;5031395;28;20028;-61
2022/12/04 07:46:25;;;;;;;64.63;21.27;;;;;;;0.42;100.00;147552.38;5031740;28;20026;-61
2022/12/04 07:48:51;;;;;;;68.87;21.93;;;;;;;0.47;100.00;147563.94;5031570;28;20052;-61
2022/12/04 07:51:20;;;;;;;47.90;17.20;;;;;;;0.45;100.00;147560.09;5030869;28;20025;-61
2022/12/04 07:53:46;;;;;;;63.13;22.23;;;;;;;0.48;100.00;147567.78;5028662;28;20021;-61
2022/12/04 07:56:13;;;;;;;48.73;16.03;;;;;;;0.53;100.00;147580.63;5030831;28;20106;-61
2022/12/04 07:58:38;;;;;;;19.53;8.97;;;;;;;0.57;100.00;147590.88;5031248;28;20052;-61
2022/12/04 08:01:09;;;;;;;70.27;24.60;;;;;;;0.57;100.00;147590.88;5031449;28;20057;-61
2022/12/04 08:03:35;;;;;;;18.80;8.50;;;;;;;0.63;100.00;147605.03;5030602;28;20040;-61
2022/12/04 08:06:02;;;;;;;52.70;17.77;;;;;;;0.63;100.00;147603.75;5031627;28;20026;-61
2022/12/04 08:08:28;;;;;;;52.70;18.73;;;;;;;0.65;100.00;147608.88;5029472;28;20034;-61
2022/12/04 08:10:54;;;;;;;58.97;20.73;;;;;;;0.70;100.00;147621.69;5032725;28;20051;-62
2022/12/04 08:13:19;;;;;;;47.23;16.60;;;;;;;0.76;100.00;147637.13;5031145;28;20388;-61
2022/12/04 08:15:44;;;;;;;62.13;22.37;;;;;;;0.81;100.00;147649.94;5031567;28;20021;-61
2022/12/04 08:18:10;;;;;;;52.53;18.70;;;;;;;0.84;100.00;147657.63;5030234;28;20045;-61
2022/12/04 08:20:35;;;;;;;50.33;17.77;;;;;;;0.86;100.00;147662.81;5030808;28;20037;-61
2022/12/04 08:23:00;;;;;;;64.07;22.20;;;;;;;0.91;100.00;147675.63;5029441;28;20040;-61
2022/12/04 08:25:26;;;;;;;57.10;20.07;;;;;;;0.96;100.00;147688.44;5031393;28;20021;-61
2022/12/04 08:27:51;;;;;;;40.77;14.33;;;;;;;0.99;100.00;147696.19;5030211;28;20107;-61
2022/12/04 08:30:17;;;;;;;47.27;17.13;;;;;;;1.01;100.00;147700.03;5031113;28;20036;-61
2022/12/04 08:32:42;;;;;;;55.03;20.30;;;;;;;1.07;100.00;147716.72;5031112;28;20021;-61
2022/12/04 08:35:08;;;;;;;56.57;21.20;;;;;;;1.08;100.00;147718.00;5029603;28;20032;-61
2022/12/04 08:37:33;;;;;;;49.70;19.67;;;;;;;1.14;100.00;147734.72;5029288;28;20052;-61
2022/12/04 08:39:58;;;;;;;39.23;14.93;;;;;;;1.20;100.00;147747.53;5030222;28;20061;-61
2022/12/04 08:42:24;;;;;;;42.07;16.37;;;;;;;1.20;100.00;147747.53;5031060;28;20541;-61
2022/12/04 08:44:49;;;;;;;47.27;15.77;;;;;;;1.21;100.00;147750.09;5031392;28;20091;-61
2022/12/04 08:47:14;;;;;;;37.20;14.90;;;;;;;1.24;100.00;147759.13;5032828;28;20047;-61
2022/12/04 08:49:40;;;;;;;36.10;14.33;;;;;;;1.32;100.00;147778.38;5034019;28;20053;-61
2022/12/04 08:52:05;;;;;;;33.23;12.50;;;;;;;1.34;100.00;147783.53;5032827;28;20025;-61
2022/12/04 08:54:31;;;;;;;40.10;15.30;;;;;;;1.35;100.00;147786.09;5033553;28;20083;-61
2022/12/04 08:56:56;;;;;;;44.67;16.27;;;;;;;1.39;100.00;147796.38;5034328;28;20017;-61
2022/12/04 08:59:21;;;;;;;29.03;12.70;;;;;;;1.41;100.00;147802.78;5031990;28;20125;-61
2022/12/04 09:01:50;;;;;;;46.33;20.07;;;;;;;1.43;100.00;147807.91;5032335;28;20033;-61
2022/12/04 09:04:16;;;;;;;34.67;13.53;;;;;;;1.44;100.00;147809.19;5034573;28;20024;-62
2022/12/04 09:06:41;;;;;;;31.77;13.17;;;;;;;1.45;100.00;147811.75;5031147;28;20021;-61
2022/12/04 09:09:06;;;;;;;27.33;10.63;;;;;;;1.46;100.00;147814.38;5033237;28;20237;-61
2022/12/04 09:11:32;;;;;;;34.43;14.23;;;;;;;1.46;100.00;147814.38;5034032;28;20032;-62
2022/12/04 09:13:58;;;;;;;31.70;13.03;;;;;;;1.41;100.00;147801.50;5033975;28;20102;-62
2022/12/04 09:16:25;;;;;;;37.33;12.83;;;;;;;1.42;100.00;147805.34;5033987;28;20029;-61
2022/12/04 09:18:50;;;;;;;34.37;13.13;;;;;;;1.47;100.00;147816.94;5033247;28;20389;-61
2022/12/04 09:21:18;;;;;;;30.80;12.93;;;;;;;1.46;100.00;147815.66;5033205;28;20033;-61
2022/12/04 09:23:45;;;;;;;37.30;13.60;;;;;;;1.53;100.00;147832.31;5034203;28;20017;-62
2022/12/04 09:26:24;;;;;;;30.27;12.40;;;;;;;1.48;100.00;147818.22;5033777;28;20029;-61
2022/12/04 09:28:50;;;;;;;38.73;16.20;;;;;;;1.47;100.00;147816.94;5031994;28;20030;-62
2022/12/04 09:31:16;;;;;;;42.27;16.47;;;;;;;1.53;100.00;147832.31;5033415;28;20496;-61
2022/12/04 09:33:41;;;;;;;33.40;12.97;;;;;;;1.48;100.00;147819.50;5033683;28;20028;-61
2022/12/04 09:36:07;;;;;;;39.03;15.63;;;;;;;1.49;100.00;147822.06;5028743;28;20025;-61
2022/12/04 09:38:33;;;;;;;34.93;13.80;;;;;;;1.54;100.00;147833.59;5029687;28;20396;-61
2022/12/04 09:41:15;;;;;;;42.13;16.53;;;;;;;1.56;100.00;147838.75;5033201;28;20084;-61
2022/12/04 09:44:00;;;;;;;25.23;9.87;;;;;;;1.53;100.00;147831.03;5026293;28;20025;-61
2022/12/04 09:46:58;;;;;;;37.30;11.53;;;;;;;1.55;100.00;147837.47;5017301;28;20014;-61
2022/12/04 09:49:42;;;;;;;36.70;14.43;;;;;;;1.62;100.00;147855.47;5028390;28;20466;-61
2022/12/04 09:52:25;;;;;;;31.90;13.07;;;;;;;1.61;100.00;147852.91;5031250;28;20033;-61
2022/12/04 09:54:51;;;;;;;43.73;17.07;;;;;;;1.60;100.00;147849.06;5033595;28;20022;-61
2022/12/04 09:57:28;;;;;;;36.23;13.13;;;;;;;1.56;100.00;147840.03;5032869;28;20025;-62
2022/12/04 09:59:54;;;;;;;32.37;13.50;;;;;;;1.55;100.00;147837.47;5033412;28;20372;-61
2022/12/04 10:02:43;;;;;;;43.20;15.07;;;;;;;1.56;100.00;147840.03;5032247;28;20048;-61
2022/12/04 10:05:44;;;;;;;44.37;16.47;;;;;;;1.61;100.00;147852.91;5032851;28;20045;-61
2022/12/04 10:08:21;;;;;;;32.58;13.20;;;;;;;1.63;100.00;147858.03;5013463;28;20037;-61
2022/12/04 10:10:59;;;;;;;36.73;14.13;;;;;;;1.61;100.00;147852.91;5030421;28;20030;-61
2022/12/04 10:14:02;;;;;;;26.90;10.97;;;;;;;1.62;100.00;147855.47;5033136;28;20358;-61
2022/12/04 10:16:48;;;;;;;38.57;14.17;;;;;;;1.59;100.00;147847.78;5032900;28;20056;-61
2022/12/04 10:19:52;;;;;;;32.87;13.97;;;;;;;1.56;100.00;147840.03;5031243;28;20508;-61
2022/12/04 10:22:43;;;;;;;43.87;16.87;;;;;;;1.58;100.00;147845.22;5009904;28;20073;-61
2022/12/04 10:25:19;;;;;;;20.25;8.80;;;;;;;1.58;100.00;147843.91;5010889;28;20192;-62
2022/12/04 10:27:54;;;;;;;48.77;18.77;;;;;;;1.62;100.00;147854.19;5012903;28;20432;-61
2022/12/04 10:30:24;;;;;;;34.90;13.93;;;;;;;1.52;100.00;147828.47;5028898;28;20531;-61
2022/12/04 10:33:12;;;;;;;34.93;13.57;;;;;;;1.50;100.00;147823.34;5032948;28;20029;-61
2022/12/04 10:35:41;;;;;;;28.13;11.87;;;;;;;1.43;100.00;147806.63;5031012;28;20036;-61
2022/12/04 10:38:18;;;;;;;39.17;16.53;;;;;;;1.49;100.00;147822.06;5032552;28;20036;-62
2022/12/04 10:40:49;;;;;;;35.83;13.73;;;;;;;1.46;100.00;147815.66;5030895;28;20503;-61
2022/12/04 10:43:26;;;;;;;35.40;13.47;;;;;;;1.45;100.00;147811.75;5029949;28;20146;-61
2022/12/04 10:45:52;;;;;;;34.17;13.60;;;;;;;1.51;100.00;147827.19;5032658;28;20033;-62
2022/12/04 10:48:24;;;;;;;35.73;11.97;;;;;;;1.54;100.00;147833.59;5032441;28;20051;-62
2022/12/04 10:50:50;;;;;;;37.93;13.97;;;;;;;1.55;100.00;147836.19;5030127;28;20554;-61
2022/12/04 10:53:15;;;;;;;45.43;17.07;;;;;;;1.55;100.00;147837.47;5032606;28;20140;-61
2022/12/04 10:55:41;;;;;;;40.03;14.63;;;;;;;1.58;100.00;147845.22;5032205;28;20056;-61
2022/12/04 10:58:25;;;;;;;41.17;16.53;;;;;;;1.58;100.00;147845.22;5032398;28;20063;-61
2022/12/04 11:01:04;;;;;;;47.43;18.33;;;;;;;1.54;100.00;147833.59;5030589;28;20033;-62
2022/12/04 11:03:30;;;;;;;51.33;20.13;;;;;;;1.54;100.00;147834.91;5031628;28;20092;-61
2022/12/04 11:05:59;;;;;;;42.83;16.23;;;;;;;1.60;100.00;147849.06;5030283;28;20477;-61
2022/12/04 11:08:34;;;;;;;35.93;13.83;;;;;;;1.59;100.00;147847.78;5031629;28;20017;-61
2022/12/04 11:11:02;;;;;;;47.63;17.23;;;;;;;1.60;100.00;147850.34;5031203;28;20477;-61
2022/12/04 11:13:28;;;;;;;54.27;20.83;;;;;;;1.61;100.00;147852.91;5031810;28;20037;-61
2022/12/04 11:15:55;;;;;;;52.30;18.83;;;;;;;1.65;100.00;147863.16;5031904;28;20022;-61
2022/12/04 11:18:23;;;;;;;47.20;16.20;;;;;;;1.71;100.00;147878.59;5031700;28;20029;-61
2022/12/04 11:21:01;;;;;;;38.83;13.13;;;;;;;1.67;100.00;147868.28;5030338;28;20053;-61
2022/12/04 11:23:32;;;;;;;56.87;19.90;;;;;;;1.66;100.00;147865.72;5032011;28;20025;-61
2022/12/04 11:25:59;;;;;;;61.40;21.80;;;;;;;1.70;100.00;147876.03;5031822;28;20104;-61
2022/12/04 11:28:29;;;;;;;60.73;22.67;;;;;;;1.70;100.00;147876.03;5031630;28;20071;-61
2022/12/04 11:30:58;;;;;;;47.73;18.37;;;;;;;1.72;100.00;147881.19;5029920;28;20045;-61
2022/12/04 11:33:36;;;;;;;46.80;15.47;;;;;;;1.78;100.00;147895.28;5031421;28;20021;-61